Time;durP1;ratioP1;P1;durP2;ratioP2;P2;SDS_P1;SDS_P2;PMS_P1;PMS_P2;Temp;Humidity;BMP_temperature;BMP_pressure;BME280_temperature;BME280_humidity;BME280_pressure;Samples;Min_cycle;Max_cycle;Signal;HPM_P1;HPM_P2
2022/09/24 00:00:34;;;;;;;0.10;0.10;;;;;;;;;;5036333;28;20482;-62
2022/09/24 00:03:00;;;;;;;0.10;0.10;;;;;;;;;;5036320;28;20504;-63
2022/09/24 00:05:26;;;;;;;0.20;0.20;;;;;;;;;;5036599;28;20030;-64
2022/09/24 00:07:51;;;;;;;0.10;0.10;;;;;;;;;;5036523;28;20026;-62
2022/09/24 00:10:16;;;;;;;2.85;2.63;;;;;;;;;;5036436;28;20081;-63
2022/09/24 00:12:42;;;;;;;0.10;0.10;;;;;;;;;;5036144;28;20053;-63
2022/09/24 00:15:08;;;;;;;0.43;0.43;;;;;;;;;;5018072;28;20030;-63
2022/09/24 00:17:33;;;;;;;0.13;0.13;;;;;;;;;;5036069;28;20017;-64
2022/09/24 00:19:58;;;;;;;0.38;0.38;;;;;;;;;;5035808;28;20035;-63
2022/09/24 00:22:24;;;;;;;0.40;0.40;;;;;;;;;;5035668;28;20036;-63
2022/09/24 00:27:33;;;;;;;0.10;0.10;;;;;;;;;;5036170;28;20026;-63
2022/09/24 00:29:59;;;;;;;0.10;0.10;;;;;;;;;;5035643;28;20033;-63
2022/09/24 00:32:24;;;;;;;0.10;0.10;;;;;;;;;;5035833;28;20052;-63
2022/09/24 00:34:52;;;;;;;0.10;0.10;;;;;;;;;;5035839;28;20021;-63
2022/09/24 00:37:18;;;;;;;0.10;0.10;;;;;;;;;;5035254;28;20079;-63
2022/09/24 00:39:44;;;;;;;1.33;1.25;;;;;;;;;;5035947;28;20033;-63
2022/09/24 00:42:10;;;;;;;0.10;0.10;;;;;;;;;;5036002;28;20024;-63
2022/09/24 00:44:39;;;;;;;0.10;0.10;;;;;;;;;;5035692;28;20021;-63
2022/09/24 00:47:06;;;;;;;0.10;0.10;;;;;;;;;;5035686;28;20029;-63
2022/09/24 00:49:32;;;;;;;1.48;1.00;;;;;;;;;;5035590;28;20037;-63
2022/09/24 00:51:57;;;;;;;1.75;1.65;;;;;;;;;;5035515;28;20036;-63
2022/09/24 00:54:25;;;;;;;0.13;0.13;;;;;;;;;;5035483;28;20009;-63
2022/09/24 00:56:51;;;;;;;0.30;0.30;;;;;;;;;;5035919;28;20107;-63
2022/09/24 00:59:18;;;;;;;0.10;0.10;;;;;;;;;;5017712;28;20029;-63
2022/09/24 01:01:45;;;;;;;1.85;1.75;;;;;;;;;;5035225;28;20365;-63
2022/09/24 01:04:11;;;;;;;0.10;0.10;;;;;;;;;;5035856;28;20489;-63
2022/09/24 01:06:37;;;;;;;1.33;1.27;;;;;;;;;;5035792;28;20040;-63
2022/09/24 01:09:02;;;;;;;0.10;0.10;;;;;;;;;;5035371;28;20029;-63
2022/09/24 01:11:46;;;;;;;0.10;0.10;;;;;;;;;;5035195;28;20045;-63
2022/09/24 01:14:12;;;;;;;0.10;0.10;;;;;;;;;;5034186;28;20034;-63
2022/09/24 01:16:48;;;;;;;0.10;0.10;;;;;;;;;;5035202;28;20037;-63
2022/09/24 01:19:27;;;;;;;0.70;0.70;;;;;;;;;;5035909;28;20432;-63
2022/09/24 01:22:03;;;;;;;0.10;0.10;;;;;;;;;;5035311;28;20029;-62
2022/09/24 01:24:43;;;;;;;0.10;0.10;;;;;;;;;;5035188;28;20025;-63
2022/09/24 01:27:15;;;;;;;0.10;0.10;;;;;;;;;;5036084;28;20429;-63
2022/09/24 01:29:46;;;;;;;0.10;0.10;;;;;;;;;;5017280;28;20402;-63
2022/09/24 01:32:19;;;;;;;0.10;0.10;;;;;;;;;;5034877;28;20033;-63
2022/09/24 01:34:59;;;;;;;0.10;0.10;;;;;;;;;;5035784;28;20105;-63
2022/09/24 01:37:27;;;;;;;0.10;0.10;;;;;;;;;;5035728;28;20025;-63
2022/09/24 01:39:53;;;;;;;0.10;0.10;;;;;;;;;;5035062;28;20481;-63
2022/09/24 01:42:19;;;;;;;0.20;0.20;;;;;;;;;;5034943;28;20124;-63
2022/09/24 01:44:45;;;;;;;0.10;0.10;;;;;;;;;;5016631;28;20021;-63
2022/09/24 01:47:15;;;;;;;0.10;0.10;;;;;;;;;;5017376;28;20433;-63
2022/09/24 01:49:40;;;;;;;4.88;4.55;;;;;;;;;;5034615;28;20071;-62
2022/09/24 01:52:09;;;;;;;0.10;0.10;;;;;;;;;;5034514;28;20018;-63
2022/09/24 01:54:38;;;;;;;0.10;0.10;;;;;;;;;;5034507;28;20018;-63
2022/09/24 01:57:19;;;;;;;0.20;0.20;;;;;;;;;;5035012;28;20036;-63
2022/09/24 01:59:51;;;;;;;0.10;0.10;;;;;;;;;;5034580;28;20033;-62
2022/09/24 02:02:21;;;;;;;0.10;0.10;;;;;;;;;;5034565;28;20369;-63
2022/09/24 02:04:51;;;;;;;0.85;0.85;;;;;;;;;;5034364;28;20045;-63
2022/09/24 02:07:21;;;;;;;0.10;0.10;;;;;;;;;;5034288;28;20029;-62
2022/09/24 02:09:48;;;;;;;0.10;0.10;;;;;;;;;;5034371;28;20029;-63
2022/09/24 02:12:16;;;;;;;0.10;0.10;;;;;;;;;;5034288;28;20108;-63
2022/09/24 02:14:53;;;;;;;0.20;0.20;;;;;;;;;;5016432;28;20029;-63
2022/09/24 02:17:20;;;;;;;0.10;0.10;;;;;;;;;;5034134;28;20025;-62
2022/09/24 02:19:46;;;;;;;0.10;0.10;;;;;;;;;;5034493;28;20037;-63
2022/09/24 02:22:13;;;;;;;0.20;0.20;;;;;;;;;;5033872;28;20035;-63
2022/09/24 02:24:54;;;;;;;0.10;0.10;;;;;;;;;;5034067;28;20032;-62
2022/09/24 02:27:20;;;;;;;0.10;0.10;;;;;;;;;;5034312;28;20025;-63
2022/09/24 02:29:46;;;;;;;0.10;0.10;;;;;;;;;;5016410;28;20025;-63
2022/09/24 02:32:13;;;;;;;0.10;0.10;;;;;;;;;;5016237;28;20457;-63
2022/09/24 02:34:43;;;;;;;0.10;0.10;;;;;;;;;;5016227;28;20104;-64
2022/09/24 02:37:09;;;;;;;0.10;0.10;;;;;;;;;;5016217;28;20361;-62
2022/09/24 02:39:35;;;;;;;0.10;0.10;;;;;;;;;;5033518;28;20430;-63
2022/09/24 02:42:03;;;;;;;0.10;0.10;;;;;;;;;;5033857;28;20100;-63
2022/09/24 02:44:30;;;;;;;0.10;0.10;;;;;;;;;;5034548;28;20352;-62
2022/09/24 02:46:55;;;;;;;0.10;0.10;;;;;;;;;;5033713;28;20469;-62
2022/09/24 02:49:21;;;;;;;0.10;0.10;;;;;;;;;;5034069;28;20034;-62
2022/09/24 02:51:46;;;;;;;0.10;0.10;;;;;;;;;;5033260;28;20045;-63
2022/09/24 02:54:12;;;;;;;0.10;0.10;;;;;;;;;;5033902;28;20029;-63
2022/09/24 02:56:37;;;;;;;0.10;0.10;;;;;;;;;;5033486;28;20029;-62
2022/09/24 02:59:03;;;;;;;0.10;0.10;;;;;;;;;;5033602;28;20029;-62
2022/09/24 03:01:29;;;;;;;10.98;9.90;;;;;;;;;;5033940;28;20056;-62
2022/09/24 03:03:55;;;;;;;0.00;0.00;;;;;;;;;;5034025;28;20021;-62
2022/09/24 03:06:20;;;;;;;1.58;1.48;;;;;;;;;;5033475;28;20029;-63
2022/09/24 03:08:46;;;;;;;0.57;0.57;;;;;;;;;;5034287;28;20029;-62
2022/09/24 03:11:12;;;;;;;0.10;0.10;;;;;;;;;;5033265;28;20060;-63
2022/09/24 03:13:38;;;;;;;0.10;0.10;;;;;;;;;;5033514;28;20037;-62
2022/09/24 03:16:04;;;;;;;0.10;0.10;;;;;;;;;;5033457;28;20034;-63
2022/09/24 03:18:29;;;;;;;0.20;0.20;;;;;;;;;;5033352;28;20032;-63
2022/09/24 03:20:55;;;;;;;0.10;0.10;;;;;;;;;;5016047;28;20360;-63
2022/09/24 03:23:21;;;;;;;1.50;1.40;;;;;;;;;;5033697;28;20026;-63
2022/09/24 03:25:46;;;;;;;0.20;0.20;;;;;;;;;;5033671;28;20049;-63
2022/09/24 03:28:12;;;;;;;0.10;0.10;;;;;;;;;;5034144;28;20079;-63
2022/09/24 03:33:21;;;;;;;0.10;0.10;;;;;;;;;;5033762;28;20064;-64
2022/09/24 03:35:47;;;;;;;0.10;0.10;;;;;;;;;;5033090;28;20373;-63
2022/09/24 03:38:13;;;;;;;0.10;0.10;;;;;;;;;;5036580;28;20111;-64
2022/09/24 03:40:38;;;;;;;0.10;0.10;;;;;;;;;;5037043;28;20040;-63
2022/09/24 03:43:04;;;;;;;0.17;0.17;;;;;;;;;;5036666;28;20022;-64
2022/09/24 03:45:29;;;;;;;1.00;0.63;;;;;;;;;;5036953;28;20440;-63
2022/09/24 03:47:55;;;;;;;0.10;0.10;;;;;;;;;;5036824;28;20068;-64
2022/09/24 03:50:20;;;;;;;0.10;0.10;;;;;;;;;;5036829;28;20014;-63
2022/09/24 03:52:46;;;;;;;0.10;0.10;;;;;;;;;;5036984;28;20017;-63
2022/09/24 03:55:11;;;;;;;0.25;0.25;;;;;;;;;;5036664;28;20028;-63
2022/09/24 03:57:37;;;;;;;0.10;0.10;;;;;;;;;;5036590;28;20029;-64
2022/09/24 04:00:03;;;;;;;7.65;4.53;;;;;;;;;;5036574;28;20472;-64
2022/09/24 04:02:31;;;;;;;0.22;0.22;;;;;;;;;;5036311;28;20490;-64
2022/09/24 04:04:57;;;;;;;0.10;0.10;;;;;;;;;;5036456;28;20132;-63
2022/09/24 04:07:23;;;;;;;0.52;0.52;;;;;;;;;;5036518;28;20057;-64
2022/09/24 04:09:48;;;;;;;0.20;0.20;;;;;;;;;;5036498;28;20033;-63
2022/09/24 04:12:14;;;;;;;0.10;0.10;;;;;;;;;;5036363;28;20407;-64
2022/09/24 04:14:39;;;;;;;0.10;0.10;;;;;;;;;;5036316;28;20017;-63
2022/09/24 04:17:05;;;;;;;0.10;0.10;;;;;;;;;;5036566;28;20100;-63
2022/09/24 04:19:30;;;;;;;0.17;0.17;;;;;;;;;;5036543;28;20349;-63
2022/09/24 04:21:56;;;;;;;0.10;0.10;;;;;;;;;;5036254;28;20022;-64
2022/09/24 04:24:21;;;;;;;0.10;0.10;;;;;;;;;;5035982;28;20025;-64
2022/09/24 04:26:47;;;;;;;0.10;0.10;;;;;;;;;;5036093;28;20033;-64
2022/09/24 04:29:12;;;;;;;0.20;0.20;;;;;;;;;;5018535;28;20026;-64
2022/09/24 04:31:39;;;;;;;0.10;0.10;;;;;;;;;;5019068;28;20017;-64
2022/09/24 04:34:04;;;;;;;0.10;0.10;;;;;;;;;;5035975;28;20392;-64
2022/09/24 04:36:30;;;;;;;0.10;0.10;;;;;;;;;;5035440;28;20027;-63
2022/09/24 04:38:56;;;;;;;0.10;0.10;;;;;;;;;;5035863;28;20087;-64
2022/09/24 04:41:21;;;;;;;0.10;0.10;;;;;;;;;;5035812;28;20017;-63
2022/09/24 04:43:47;;;;;;;0.20;0.20;;;;;;;;;;5035967;28;20163;-63
2022/09/24 04:46:13;;;;;;;0.10;0.10;;;;;;;;;;5017856;28;20030;-64
2022/09/24 04:48:38;;;;;;;0.10;0.10;;;;;;;;;;5034576;28;20055;-64
2022/09/24 04:51:07;;;;;;;0.10;0.10;;;;;;;;;;5035420;28;20022;-64
2022/09/24 04:53:36;;;;;;;0.10;0.10;;;;;;;;;;5036258;28;20107;-64
2022/09/24 04:56:04;;;;;;;0.10;0.10;;;;;;;;;;5035686;28;20021;-64
2022/09/24 04:58:30;;;;;;;0.10;0.10;;;;;;;;;;5036020;28;20014;-63
2022/09/24 05:00:56;;;;;;;0.17;0.17;;;;;;;;;;5035382;28;20048;-64
2022/09/24 05:03:21;;;;;;;1.08;1.08;;;;;;;;;;5035737;28;20028;-64
2022/09/24 05:05:48;;;;;;;0.30;0.30;;;;;;;;;;5017875;28;20030;-64
2022/09/24 05:08:14;;;;;;;0.10;0.10;;;;;;;;;;5035382;28;20028;-64
2022/09/24 05:10:40;;;;;;;2.28;2.08;;;;;;;;;;5035371;28;20042;-63
2022/09/24 05:13:05;;;;;;;0.10;0.10;;;;;;;;;;5035504;28;20022;-64
2022/09/24 05:15:31;;;;;;;0.10;0.10;;;;;;;;;;5035626;28;20029;-63
2022/09/24 05:17:57;;;;;;;0.10;0.10;;;;;;;;;;5017323;28;20017;-63
2022/09/24 05:20:23;;;;;;;0.10;0.10;;;;;;;;;;5034938;28;20052;-62
2022/09/24 05:22:49;;;;;;;0.55;0.55;;;;;;;;;;5035088;28;20028;-63
2022/09/24 05:25:15;;;;;;;0.15;0.15;;;;;;;;;;5034786;28;20025;-63
2022/09/24 05:27:47;;;;;;;0.75;0.75;;;;;;;;;;5035249;28;20028;-63
2022/09/24 05:30:13;;;;;;;0.10;0.10;;;;;;;;;;5035021;28;20029;-62
2022/09/24 05:32:38;;;;;;;0.10;0.10;;;;;;;;;;5034593;28;20361;-63
2022/09/24 05:35:07;;;;;;;0.10;0.10;;;;;;;;;;5017309;28;20091;-64
2022/09/24 05:37:33;;;;;;;0.13;0.13;;;;;;;;;;5034807;28;20028;-63
2022/09/24 05:40:46;;;;;;;0.10;0.10;;;;;;;;;;5034726;28;20033;-63
2022/09/24 05:42:45;;;;;;;0.10;0.10;;;;;;;;;;5035440;28;20025;-63
2022/09/24 05:45:11;;;;;;;0.20;0.20;;;;;;;;;;5035146;28;20032;-63
2022/09/24 05:47:36;;;;;;;0.10;0.10;;;;;;;;;;5034458;28;20022;-63
2022/09/24 05:50:02;;;;;;;0.10;0.10;;;;;;;;;;5016900;28;20377;-64
2022/09/24 05:52:27;;;;;;;0.10;0.10;;;;;;;;;;5034469;28;20470;-64
2022/09/24 05:54:52;;;;;;;0.20;0.20;;;;;;;;;;5034503;28;20327;-64
2022/09/24 05:57:18;;;;;;;0.10;0.10;;;;;;;;;;5034883;28;20346;-63
2022/09/24 05:59:44;;;;;;;0.10;0.10;;;;;;;;;;5034056;28;20146;-64
2022/09/24 06:02:09;;;;;;;0.10;0.10;;;;;;;;;;5035027;28;20022;-63
2022/09/24 06:04:35;;;;;;;0.10;0.10;;;;;;;;;;5017124;28;20147;-63
2022/09/24 06:07:02;;;;;;;0.20;0.20;;;;;;;;;;5034244;28;20022;-63
2022/09/24 06:09:27;;;;;;;0.10;0.10;;;;;;;;;;5034256;28;20025;-63
2022/09/24 06:11:55;;;;;;;0.20;0.20;;;;;;;;;;5034555;28;20461;-63
2022/09/24 06:14:22;;;;;;;0.10;0.10;;;;;;;;;;5034345;28;20484;-64
2022/09/24 06:16:47;;;;;;;0.10;0.10;;;;;;;;;;5034498;28;20026;-63
2022/09/24 06:19:12;;;;;;;0.10;0.10;;;;;;;;;;5034039;28;20035;-64
2022/09/24 06:21:38;;;;;;;0.10;0.10;;;;;;;;;;5034108;28;20030;-63
2022/09/24 06:24:03;;;;;;;0.10;0.10;;;;;;;;;;5033970;28;20104;-63
2022/09/24 06:26:29;;;;;;;0.10;0.10;;;;;;;;;;5033705;28;20017;-63
2022/09/24 06:28:55;;;;;;;0.10;0.10;;;;;;;;;;5034024;28;20049;-63
2022/09/24 06:31:20;;;;;;;0.15;0.15;;;;;;;;;;5033743;28;20022;-63
2022/09/24 06:33:46;;;;;;;0.17;0.17;;;;;;;;;;5034008;28;20407;-63
2022/09/24 06:36:11;;;;;;;0.10;0.10;;;;;;;;;;5034829;28;20120;-63
2022/09/24 06:38:39;;;;;;;0.20;0.20;;;;;;;;;;5033465;28;20029;-63
2022/09/24 06:41:05;;;;;;;0.20;0.20;;;;;;;;;;5034339;28;20025;-63
2022/09/24 06:43:31;;;;;;;0.20;0.20;;;;;;;;;;5033828;28;20029;-64
2022/09/24 06:45:57;;;;;;;0.38;0.38;;;;;;;;;;5033774;28;20334;-63
2022/09/24 06:48:22;;;;;;;0.10;0.10;;;;;;;;;;5033743;28;20083;-63
2022/09/24 06:50:48;;;;;;;0.20;0.20;;;;;;;;;;5034596;28;20025;-64
2022/09/24 06:53:13;;;;;;;0.10;0.10;;;;;;;;;;5015912;28;20025;-64
2022/09/24 06:55:39;;;;;;;0.30;0.30;;;;;;;;;;5034143;28;20037;-63
2022/09/24 06:58:05;;;;;;;0.57;0.57;;;;;;;;;;5040120;28;20502;-63
2022/09/24 07:00:31;;;;;;;0.13;0.13;;;;;;;;;;5053244;28;20040;-62
2022/09/24 07:02:56;;;;;;;1.83;1.67;;;;;;;;;;5053282;28;20388;-64
2022/09/24 07:05:22;;;;;;;0.20;0.20;;;;;;;;;;5053688;28;20025;-64
2022/09/24 07:07:47;;;;;;;0.20;0.20;;;;;;;;;;5053484;28;20051;-64
2022/09/24 07:10:13;;;;;;;0.20;0.20;;;;;;;;;;5053634;28;20110;-64
2022/09/24 07:12:40;;;;;;;0.10;0.10;;;;;;;;;;5055299;28;20052;-64
2022/09/24 07:15:06;;;;;;;0.17;0.17;;;;;;;;;;5057177;28;20469;-63
2022/09/24 07:17:31;;;;;;;0.30;0.30;;;;;;;;;;5057393;28;20096;-63
2022/09/24 07:19:57;;;;;;;0.22;0.22;;;;;;;;;;5056935;28;20086;-64
2022/09/24 07:22:23;;;;;;;0.20;0.20;;;;;;;;;;5057214;28;20036;-64
2022/09/24 07:24:49;;;;;;;0.20;0.20;;;;;;;;;;5057264;28;20029;-64
2022/09/24 07:27:15;;;;;;;0.25;0.25;;;;;;;;;;5058095;28;20349;-64
2022/09/24 07:29:41;;;;;;;0.20;0.20;;;;;;;;;;5057108;28;20040;-64
2022/09/24 07:32:07;;;;;;;0.20;0.20;;;;;;;;;;5057115;28;20048;-64
2022/09/24 07:34:32;;;;;;;0.40;0.40;;;;;;;;;;5039592;28;20036;-65
2022/09/24 07:36:58;;;;;;;0.20;0.20;;;;;;;;;;5057015;28;20009;-63
2022/09/24 07:39:24;;;;;;;0.20;0.20;;;;;;;;;;5056888;28;20083;-64
2022/09/24 07:41:53;;;;;;;0.35;0.35;;;;;;;;;;5057109;28;20103;-64
2022/09/24 07:44:19;;;;;;;0.57;0.57;;;;;;;;;;5056734;28;20098;-64
2022/09/24 07:46:48;;;;;;;0.22;0.22;;;;;;;;;;5056772;28;20025;-63
2022/09/24 07:49:13;;;;;;;0.20;0.20;;;;;;;;;;5056572;28;20029;-63
2022/09/24 07:51:39;;;;;;;0.30;0.30;;;;;;;;;;5057769;28;20441;-64
2022/09/24 07:54:04;;;;;;;0.30;0.30;;;;;;;;;;5056614;28;20017;-63
2022/09/24 07:56:31;;;;;;;0.20;0.20;;;;;;;;;;5056317;28;20074;-63
2022/09/24 07:58:56;;;;;;;0.20;0.20;;;;;;;;;;5057087;28;20039;-63
2022/09/24 08:01:23;;;;;;;0.30;0.30;;;;;;;;;;5056631;28;20025;-63
2022/09/24 08:03:49;;;;;;;0.20;0.20;;;;;;;;;;5056770;28;20063;-63
2022/09/24 08:06:15;;;;;;;0.20;0.20;;;;;;;;;;5058106;28;20021;-64
2022/09/24 08:08:41;;;;;;;0.20;0.20;;;;;;;;;;5065073;28;20038;-63
2022/09/24 08:11:08;;;;;;;0.80;0.80;;;;;;;;;;5056484;28;20045;-63
2022/09/24 08:13:34;;;;;;;0.22;0.22;;;;;;;;;;5056312;28;20021;-63
2022/09/24 08:16:00;;;;;;;0.40;0.40;;;;;;;;;;5057008;28;20025;-63
2022/09/24 08:18:26;;;;;;;0.20;0.20;;;;;;;;;;5056197;28;20017;-63
2022/09/24 08:20:51;;;;;;;0.25;0.25;;;;;;;;;;5056233;28;20040;-64
2022/09/24 08:23:17;;;;;;;0.20;0.20;;;;;;;;;;5055314;28;20025;-64
2022/09/24 08:25:42;;;;;;;0.25;0.25;;;;;;;;;;5037953;28;20468;-63
2022/09/24 08:28:10;;;;;;;0.55;0.45;;;;;;;;;;5056070;28;20016;-64
2022/09/24 08:30:38;;;;;;;0.50;0.50;;;;;;;;;;5056446;28;20056;-63
2022/09/24 08:33:06;;;;;;;0.20;0.20;;;;;;;;;;5055861;28;20017;-63
2022/09/24 08:35:32;;;;;;;0.40;0.40;;;;;;;;;;5038023;28;20079;-64
2022/09/24 08:38:00;;;;;;;0.20;0.20;;;;;;;;;;5055708;28;20024;-64
2022/09/24 08:40:27;;;;;;;0.30;0.30;;;;;;;;;;5038353;28;20056;-63
2022/09/24 08:43:01;;;;;;;0.35;0.30;;;;;;;;;;5055828;28;20025;-64
2022/09/24 08:48:19;;;;;;;0.30;0.30;;;;;;;;;;5039119;28;20045;-64
2022/09/24 08:51:00;;;;;;;0.98;0.40;;;;;;;;;;5055964;28;20025;-63
2022/09/24 08:53:42;;;;;;;0.47;0.47;;;;;;;;;;5055557;28;20448;-63
2022/09/24 08:56:09;;;;;;;0.75;0.40;;;;;;;;;;5055413;28;20021;-64
2022/09/24 08:58:43;;;;;;;0.47;0.40;;;;;;;;;;5056421;28;20108;-65
2022/09/24 09:01:09;;;;;;;0.20;0.20;;;;;;;;;;5056216;28;20498;-64
2022/09/24 09:03:53;;;;;;;0.20;0.20;;;;;;;;;;5055392;28;20017;-64
2022/09/24 09:06:18;;;;;;;0.20;0.20;;;;;;;;;;5037597;28;20464;-64
2022/09/24 09:08:43;;;;;;;0.25;0.25;;;;;;;;;;5055143;28;20048;-64
2022/09/24 09:11:11;;;;;;;0.85;0.52;;;;;;;;;;5055046;28;20413;-64
2022/09/24 09:13:46;;;;;;;0.30;0.30;;;;;;;;;;5055410;28;20031;-64
2022/09/24 09:16:40;;;;;;;0.30;0.30;;;;;;;;;;5054909;28;20480;-64
2022/09/24 09:19:11;;;;;;;0.40;0.32;;;;;;;;;;5033400;28;20069;-63
2022/09/24 09:21:42;;;;;;;0.68;0.50;;;;;;;;;;5054984;28;20029;-64
2022/09/24 09:24:18;;;;;;;0.50;0.50;;;;;;;;;;5037598;28;20029;-63
2022/09/24 09:26:46;;;;;;;0.60;0.55;;;;;;;;;;5053525;28;20025;-64
2022/09/24 09:29:12;;;;;;;0.20;0.20;;;;;;;;;;5037153;28;20481;-64
2022/09/24 09:31:37;;;;;;;0.30;0.30;;;;;;;;;;5054398;28;20021;-63
2022/09/24 09:34:03;;;;;;;0.35;0.35;;;;;;;;;;5054213;28;20021;-64
2022/09/24 09:36:28;;;;;;;0.30;0.30;;;;;;;;;;5054526;28;20029;-64
2022/09/24 09:38:54;;;;;;;0.20;0.20;;;;;;;;;;5053956;28;20372;-64
2022/09/24 09:41:22;;;;;;;0.30;0.30;;;;;;;;;;5054110;28;20021;-63
2022/09/24 09:43:48;;;;;;;0.30;0.30;;;;;;;;;;5055196;28;20029;-63
2022/09/24 09:46:17;;;;;;;0.30;0.30;;;;;;;;;;5054470;28;20036;-63
2022/09/24 09:48:44;;;;;;;0.32;0.32;;;;;;;;;;5054882;28;20111;-63
2022/09/24 09:51:14;;;;;;;0.20;0.20;;;;;;;;;;5053617;28;20033;-64
2022/09/24 09:53:39;;;;;;;0.20;0.20;;;;;;;;;;5054587;28;20013;-64
2022/09/24 09:56:06;;;;;;;0.60;0.40;;;;;;;;;;5054089;28;20021;-64
2022/09/24 09:58:36;;;;;;;0.35;0.30;;;;;;;;;;5053703;28;20016;-65
2022/09/24 10:01:06;;;;;;;0.28;0.28;;;;;;;;;;5054097;28;20072;-64
2022/09/24 10:03:33;;;;;;;0.20;0.20;;;;;;;;;;5036398;28;20411;-65
2022/09/24 10:06:00;;;;;;;0.30;0.30;;;;;;;;;;5053626;28;20025;-65
2022/09/24 10:08:26;;;;;;;0.47;0.40;;;;;;;;;;5054260;28;20063;-64
2022/09/24 10:10:54;;;;;;;0.38;0.38;;;;;;;;;;5054307;28;20110;-65
2022/09/24 10:13:20;;;;;;;0.25;0.25;;;;;;;;;;5054511;28;20107;-65
2022/09/24 10:15:58;;;;;;;0.32;0.32;;;;;;;;;;5054110;28;20487;-65
2022/09/24 10:18:29;;;;;;;0.30;0.30;;;;;;;;;;5054270;28;20406;-64
2022/09/24 10:20:55;;;;;;;4.75;2.15;;;;;;;;;;5053965;28;20036;-65
2022/09/24 10:23:23;;;;;;;0.63;0.63;;;;;;;;;;5053625;28;20012;-64
2022/09/24 10:25:59;;;;;;;0.32;0.32;;;;;;;;;;5053661;28;20421;-64
2022/09/24 10:31:13;;;;;;;0.20;0.20;;;;;;;;;;5054247;28;20467;-64
2022/09/24 10:33:40;;;;;;;1.42;0.70;;;;;;;;;;5052206;28;20468;-64
2022/09/24 10:36:11;;;;;;;0.73;0.73;;;;;;;;;;5052530;28;20029;-65
2022/09/24 10:38:37;;;;;;;1.85;0.45;;;;;;;;;;5054257;28;20039;-65
2022/09/24 10:41:12;;;;;;;0.30;0.30;;;;;;;;;;5054440;28;20033;-65
2022/09/24 10:43:38;;;;;;;0.20;0.20;;;;;;;;;;5053404;28;20032;-65
2022/09/24 10:46:20;;;;;;;0.40;0.40;;;;;;;;;;5035241;28;20032;-65
2022/09/24 10:48:55;;;;;;;0.73;0.50;;;;;;;;;;5053226;28;20021;-65
2022/09/24 10:51:26;;;;;;;0.57;0.47;;;;;;;;;;5053308;28;20044;-64
2022/09/24 10:53:52;;;;;;;0.40;0.40;;;;;;;;;;5053968;28;20482;-64
2022/09/24 10:56:34;;;;;;;0.93;0.93;;;;;;;;;;5053864;28;20025;-64
2022/09/24 10:59:12;;;;;;;0.35;0.32;;;;;;;;;;5053559;28;20029;-64
2022/09/24 11:01:41;;;;;;;0.30;0.30;;;;;;;;;;5053557;28;20025;-65
2022/09/24 11:04:25;;;;;;;4.07;0.63;;;;;;;;;;5053030;28;20464;-64
2022/09/24 11:06:51;;;;;;;1.30;0.98;;;;;;;;;;5053290;28;20021;-64
2022/09/24 11:09:19;;;;;;;0.28;0.28;;;;;;;;;;5051518;28;20500;-64
2022/09/24 11:12:07;;;;;;;0.35;0.32;;;;;;;;;;5052374;28;20386;-64
2022/09/24 11:14:34;;;;;;;1.02;0.30;;;;;;;;;;5034552;28;20036;-64
2022/09/24 11:17:02;;;;;;;0.28;0.28;;;;;;;;;;5053226;28;20017;-64
2022/09/24 11:19:31;;;;;;;0.30;0.30;;;;;;;;;;5052591;28;20025;-64
2022/09/24 11:22:03;;;;;;;0.30;0.30;;;;;;;;;;5052456;28;20025;-64
2022/09/24 11:24:28;;;;;;;0.40;0.40;;;;;;;;;;5053775;28;20056;-65
2022/09/24 11:27:01;;;;;;;1.33;0.57;;;;;;;;;;5052486;28;20146;-64
2022/09/24 11:29:37;;;;;;;0.43;0.43;;;;;;;;;;5052797;28;20079;-64
2022/09/24 11:32:12;;;;;;;0.43;0.40;;;;;;;;;;5052857;28;20407;-65
2022/09/24 11:34:38;;;;;;;0.30;0.30;;;;;;;;;;5052976;28;20112;-65
2022/09/24 11:37:22;;;;;;;0.32;0.32;;;;;;;;;;5053259;28;20423;-64
2022/09/24 11:39:59;;;;;;;0.32;0.32;;;;;;;;;;5053083;28;20040;-64
2022/09/24 11:42:28;;;;;;;0.45;0.45;;;;;;;;;;5035553;28;20025;-65
2022/09/24 11:45:00;;;;;;;0.57;0.57;;;;;;;;;;5052941;28;20082;-64
2022/09/24 11:47:25;;;;;;;0.32;0.32;;;;;;;;;;5035526;28;20099;-64
2022/09/24 11:49:57;;;;;;;0.20;0.20;;;;;;;;;;5053174;28;20512;-64
2022/09/24 11:52:32;;;;;;;1.00;0.50;;;;;;;;;;5053625;28;20128;-64
2022/09/24 11:55:11;;;;;;;1.17;0.43;;;;;;;;;;5053214;28;20349;-64
2022/09/24 11:57:42;;;;;;;0.65;0.52;;;;;;;;;;5036317;28;20025;-64
2022/09/24 12:00:13;;;;;;;0.75;0.50;;;;;;;;;;5055818;28;20064;-64
2022/09/24 12:02:47;;;;;;;0.88;0.40;;;;;;;;;;5056561;28;20420;-64
2022/09/24 12:05:34;;;;;;;0.30;0.30;;;;;;;;;;5056961;28;20116;-65
2022/09/24 12:08:08;;;;;;;0.68;0.43;;;;;;;;;;5057167;28;20021;-64
2022/09/24 12:10:38;;;;;;;1.48;0.65;;;;;;;;;;5056270;28;20068;-64
2022/09/24 12:13:04;;;;;;;0.30;0.30;;;;;;;;;;5055458;28;20461;-63
2022/09/24 12:15:34;;;;;;;2.63;0.43;;;;;;;;;;5056478;28;20074;-64
2022/09/24 12:18:07;;;;;;;0.43;0.40;;;;;;;;;;5056469;28;20064;-63
2022/09/24 12:20:40;;;;;;;0.30;0.30;;;;;;;;;;5038173;28;20048;-66
2022/09/24 12:23:10;;;;;;;0.40;0.40;;;;;;;;;;5056398;28;20025;-64
2022/09/24 12:25:44;;;;;;;0.32;0.32;;;;;;;;;;5056509;28;20067;-64
2022/09/24 12:34:23;;;;;;;0.65;0.60;;;;;;;;;;5056045;28;20017;-66
2022/09/24 12:36:55;;;;;;;3.83;0.50;;;;;;;;;;5046627;28;20043;-65
2022/09/24 12:39:24;;;;;;;0.20;0.20;;;;;;;;;;5056516;28;20025;-65
2022/09/24 12:41:56;;;;;;;3.03;2.70;;;;;;;;;;5055526;28;20017;-64
2022/09/24 12:44:34;;;;;;;0.85;0.40;;;;;;;;;;5055656;28;20048;-65
2022/09/24 12:47:00;;;;;;;0.20;0.20;;;;;;;;;;5037954;28;20078;-64
2022/09/24 12:49:25;;;;;;;0.22;0.22;;;;;;;;;;5055261;28;20406;-63
2022/09/24 12:52:11;;;;;;;0.80;0.50;;;;;;;;;;5055122;28;20012;-64
2022/09/24 12:54:37;;;;;;;0.20;0.20;;;;;;;;;;5030080;28;20036;-64
2022/09/24 12:57:06;;;;;;;0.60;0.50;;;;;;;;;;5046593;28;20456;-64
2022/09/24 12:59:32;;;;;;;0.20;0.13;;;;;;;;;;5055182;28;20470;-65
2022/09/24 13:02:27;;;;;;;0.32;0.30;;;;;;;;;;5055680;28;20102;-65
2022/09/24 13:05:02;;;;;;;0.73;0.40;;;;;;;;;;5046012;28;20048;-65
2022/09/24 13:07:30;;;;;;;0.40;0.40;;;;;;;;;;5047011;28;20028;-64
2022/09/24 13:09:56;;;;;;;0.52;0.40;;;;;;;;;;5054512;28;20068;-65
2022/09/24 13:12:28;;;;;;;3.83;0.77;;;;;;;;;;5055182;28;20052;-66
2022/09/24 13:14:59;;;;;;;0.22;0.22;;;;;;;;;;5055894;28;20025;-64
2022/09/24 13:17:25;;;;;;;0.30;0.30;;;;;;;;;;5055853;28;20474;-64
2022/09/24 13:19:56;;;;;;;0.30;0.30;;;;;;;;;;5054926;28;20114;-65
2022/09/24 13:22:21;;;;;;;0.82;0.82;;;;;;;;;;5054738;28;20495;-64
2022/09/24 13:24:49;;;;;;;0.20;0.20;;;;;;;;;;5054791;28;20025;-65
2022/09/24 13:27:20;;;;;;;0.20;0.20;;;;;;;;;;5054582;28;20044;-64
2022/09/24 13:29:47;;;;;;;0.22;0.22;;;;;;;;;;5054203;28;20463;-64
2022/09/24 13:32:17;;;;;;;0.50;0.40;;;;;;;;;;5055200;28;20060;-64
2022/09/24 13:34:43;;;;;;;0.80;0.30;;;;;;;;;;5054866;28;20179;-65
2022/09/24 13:37:09;;;;;;;0.30;0.30;;;;;;;;;;5054985;28;20035;-64
2022/09/24 13:39:40;;;;;;;0.45;0.40;;;;;;;;;;5054646;28;20128;-65
2022/09/24 13:42:23;;;;;;;0.38;0.38;;;;;;;;;;5054825;28;20028;-65
2022/09/24 13:44:48;;;;;;;1.30;1.23;;;;;;;;;;5035775;28;20433;-65
2022/09/24 13:47:20;;;;;;;0.68;0.68;;;;;;;;;;5034687;28;20100;-65
2022/09/24 13:49:47;;;;;;;0.20;0.20;;;;;;;;;;5034659;28;20079;-64
2022/09/24 13:52:16;;;;;;;0.32;0.32;;;;;;;;;;5034301;28;20029;-66
2022/09/24 13:54:47;;;;;;;0.85;0.40;;;;;;;;;;5034581;28;20021;-65
2022/09/24 13:57:28;;;;;;;0.35;0.35;;;;;;;;;;5034524;28;20030;-65
2022/09/24 14:00:24;;;;;;;1.10;0.70;;;;;;;;;;5034402;28;20064;-65
2022/09/24 14:03:08;;;;;;;0.75;0.47;;;;;;;;;;5018098;28;20030;-65
2022/09/24 14:05:36;;;;;;;0.30;0.30;;;;;;;;;;5034464;28;20021;-66
2022/09/24 14:08:03;;;;;;;0.55;0.55;;;;;;;;;;5034271;28;20025;-65
2022/09/24 14:10:29;;;;;;;0.63;0.30;;;;;;;;;;5034105;28;20037;-65
2022/09/24 14:13:16;;;;;;;0.40;0.40;;;;;;;;;;5032723;28;20036;-64
2022/09/24 14:16:01;;;;;;;0.52;0.50;;;;;;;;;;5034088;28;20527;-65
2022/09/24 14:18:27;;;;;;;0.30;0.30;;;;;;;;;;5033992;28;20025;-66
2022/09/24 14:21:03;;;;;;;0.50;0.43;;;;;;;;;;5033860;28;20037;-66
2022/09/24 14:23:31;;;;;;;0.40;0.40;;;;;;;;;;5033959;28;20029;-66
2022/09/24 14:25:57;;;;;;;0.30;0.30;;;;;;;;;;5033689;28;20021;-66
2022/09/24 14:28:23;;;;;;;0.28;0.28;;;;;;;;;;5033809;28;20018;-66
2022/09/24 14:30:50;;;;;;;0.30;0.30;;;;;;;;;;5033869;28;20365;-64
2022/09/24 14:33:17;;;;;;;0.30;0.30;;;;;;;;;;5034831;28;20091;-65
2022/09/24 14:35:47;;;;;;;0.47;0.32;;;;;;;;;;5033793;28;20056;-65
2022/09/24 14:38:12;;;;;;;1.02;0.77;;;;;;;;;;5033482;28;20401;-65
2022/09/24 14:40:39;;;;;;;0.65;0.65;;;;;;;;;;5033591;28;20033;-64
2022/09/24 14:43:04;;;;;;;1.45;0.45;;;;;;;;;;5033900;28;20401;-65
2022/09/24 14:45:33;;;;;;;0.40;0.40;;;;;;;;;;5033668;28;20056;-64
2022/09/24 14:48:18;;;;;;;0.30;0.30;;;;;;;;;;5033657;28;20457;-65
2022/09/24 14:50:44;;;;;;;0.60;0.35;;;;;;;;;;5034057;28;20029;-64
2022/09/24 14:53:12;;;;;;;0.20;0.20;;;;;;;;;;5032808;28;20029;-64
2022/09/24 14:55:40;;;;;;;0.20;0.20;;;;;;;;;;5033716;28;20072;-64
2022/09/24 14:58:20;;;;;;;0.20;0.20;;;;;;;;;;5032540;28;20036;-65
2022/09/24 15:00:47;;;;;;;0.20;0.20;;;;;;;;;;5034436;28;20065;-65
2022/09/24 15:03:14;;;;;;;0.30;0.30;;;;;;;;;;5032549;28;20361;-64
2022/09/24 15:05:39;;;;;;;0.20;0.20;;;;;;;;;;5033617;28;20052;-65
2022/09/24 15:08:18;;;;;;;4.20;2.97;;;;;;;;;;5034148;28;20026;-66